Time;durP1;ratioP1;P1;durP2;ratioP2;P2;SDS_P1;SDS_P2;PMS_P1;PMS_P2;Temp;Humidity;BMP_temperature;BMP_pressure;BME280_temperature;BME280_humidity;BME280_pressure;Samples;Min_cycle;Max_cycle;Signal;HPM_P1;HPM_P2
2021/06/14 00:01:03;;;;;;;4.82;3.35;;;15.60;52.90;;;;;;5035557;28;20056;-78
2021/06/14 00:03:29;;;;;;;9.00;5.22;;;15.70;52.80;;;;;;5046830;28;20033;-79
2021/06/14 00:05:55;;;;;;;8.38;5.90;;;15.50;52.80;;;;;;5039548;28;20032;-78
2021/06/14 00:08:21;;;;;;;10.45;4.97;;;15.50;53.00;;;;;;5040993;28;20055;-79
2021/06/14 00:10:50;;;;;;;9.90;5.10;;;15.40;53.50;;;;;;5037370;28;20107;-79
2021/06/14 00:13:16;;;;;;;5.85;3.67;;;15.40;53.60;;;;;;5035608;28;20040;-79
2021/06/14 00:15:42;;;;;;;9.75;5.40;;;15.30;53.40;;;;;;5025012;28;20028;-79
2021/06/14 00:18:08;;;;;;;7.53;5.20;;;15.20;53.60;;;;;;5041023;28;20025;-79
2021/06/14 00:20:33;;;;;;;8.80;4.72;;;15.10;54.10;;;;;;5023956;28;20086;-78
2021/06/14 00:22:59;;;;;;;7.60;4.85;;;15.10;54.00;;;;;;5024247;28;20044;-78
2021/06/14 00:25:26;;;;;;;5.32;3.88;;;15.00;53.70;;;;;;5035205;28;20351;-78
2021/06/14 00:27:52;;;;;;;9.68;5.32;;;15.10;54.00;;;;;;5023840;28;20400;-78
2021/06/14 00:30:40;;;;;;;6.03;3.97;;;15.10;53.80;;;;;;5022432;28;20037;-80
2021/06/14 00:33:06;;;;;;;11.82;5.28;;;15.00;53.90;;;;;;5061997;28;20044;-78
2021/06/14 00:35:31;;;;;;;12.35;5.78;;;14.80;53.80;;;;;;5020218;28;20083;-79
2021/06/14 00:37:57;;;;;;;8.63;5.20;;;14.60;55.20;;;;;;5037288;28;20029;-78
2021/06/14 00:40:23;;;;;;;11.10;5.80;;;14.60;55.50;;;;;;5044172;28;20072;-78
2021/06/14 00:42:48;;;;;;;5.85;5.00;;;14.50;54.80;;;;;;5052375;28;20029;-78
2021/06/14 00:45:16;;;;;;;9.48;5.60;;;14.30;56.20;;;;;;5040734;28;20052;-79
2021/06/14 00:47:45;;;;;;;7.15;4.22;;;14.30;55.70;;;;;;5024759;28;20028;-78
2021/06/14 00:50:11;;;;;;;9.20;5.55;;;14.40;54.90;;;;;;5028466;28;20029;-79
2021/06/14 00:52:38;;;;;;;8.15;5.30;;;14.30;55.00;;;;;;5044501;28;20098;-78
2021/06/14 00:55:05;;;;;;;10.48;5.90;;;14.20;56.10;;;;;;5038948;28;20468;-78
2021/06/14 00:57:30;;;;;;;9.38;4.85;;;14.10;56.50;;;;;;5025198;28;20104;-79
2021/06/14 00:59:56;;;;;;;14.18;5.60;;;14.20;55.10;;;;;;5027531;28;20115;-78
2021/06/14 01:02:21;;;;;;;7.78;5.45;;;14.00;56.90;;;;;;5035326;28;20029;-78
2021/06/14 01:04:47;;;;;;;10.07;5.90;;;13.80;58.20;;;;;;5039048;28;20045;-78
2021/06/14 01:07:13;;;;;;;12.73;5.47;;;13.70;58.40;;;;;;5059203;28;20107;-78
2021/06/14 01:09:38;;;;;;;7.63;5.00;;;13.70;58.50;;;;;;5026015;28;20374;-78
2021/06/14 01:12:08;;;;;;;10.48;5.65;;;13.70;57.70;;;;;;5040928;28;20100;-78
2021/06/14 01:14:51;;;;;;;10.25;5.30;;;13.80;56.80;;;;;;5024525;28;20428;-78
2021/06/14 01:17:28;;;;;;;8.07;5.57;;;13.90;56.30;;;;;;5031330;28;20029;-78
2021/06/14 01:20:02;;;;;;;8.40;5.57;;;13.90;56.10;;;;;;5023755;28;20037;-79
2021/06/14 01:22:58;;;;;;;8.82;5.53;;;13.90;55.80;;;;;;5053091;28;20025;-78
2021/06/14 01:25:26;;;;;;;13.05;6.15;;;13.90;55.90;;;;;;5052320;28;20029;-78
2021/06/14 01:27:56;;;;;;;8.77;5.22;;;13.70;55.90;;;;;;5059546;28;20481;-78
2021/06/14 01:30:25;;;;;;;10.98;5.20;;;13.70;56.20;;;;;;5036304;28;20048;-79
2021/06/14 01:32:50;;;;;;;11.85;5.95;;;13.40;57.80;;;;;;5038676;28;20025;-78
2021/06/14 01:35:31;;;;;;;11.68;6.22;;;13.40;57.70;;;;;;5044029;28;20094;-78
2021/06/14 01:37:57;;;;;;;10.57;5.63;;;13.40;57.50;;;;;;5056107;28;20032;-78
2021/06/14 01:40:24;;;;;;;12.57;5.47;;;13.40;58.10;;;;;;5054839;28;20366;-78
2021/06/14 01:42:51;;;;;;;12.27;6.15;;;13.40;57.70;;;;;;5041472;28;20087;-78
2021/06/14 01:45:17;;;;;;;9.02;5.60;;;13.40;58.20;;;;;;5024403;28;20033;-78
2021/06/14 01:47:42;;;;;;;10.05;5.05;;;13.40;58.80;;;;;;5060629;28;20481;-78
2021/06/14 01:50:08;;;;;;;11.68;5.75;;;13.30;59.80;;;;;;5040190;28;20017;-78
2021/06/14 01:52:34;;;;;;;10.70;5.25;;;13.20;59.40;;;;;;5025995;28;20392;-78
2021/06/14 01:54:59;;;;;;;8.75;5.20;;;13.20;59.30;;;;;;5038598;28;20048;-79
2021/06/14 01:57:25;;;;;;;7.43;5.03;;;13.10;58.90;;;;;;5029367;28;20020;-78
2021/06/14 01:59:51;;;;;;;6.13;5.10;;;13.00;59.10;;;;;;5044696;28;20041;-79
2021/06/14 02:02:16;;;;;;;9.18;5.15;;;12.90;59.60;;;;;;5034419;28;20481;-78
2021/06/14 02:04:45;;;;;;;9.38;5.40;;;12.90;59.40;;;;;;5037276;28;20473;-79
2021/06/14 02:07:11;;;;;;;8.85;5.38;;;12.90;59.70;;;;;;5030058;28;20033;-78
2021/06/14 02:09:36;;;;;;;8.20;5.50;;;12.90;60.20;;;;;;5022867;28;20033;-78
2021/06/14 02:12:03;;;;;;;11.38;5.72;;;12.80;59.50;;;;;;5023694;28;20535;-79
2021/06/14 02:14:30;;;;;;;8.50;5.60;;;12.80;59.50;;;;;;5041862;28;20032;-79
2021/06/14 02:16:57;;;;;;;8.77;5.43;;;12.70;59.60;;;;;;5045766;28;20040;-79
2021/06/14 02:19:23;;;;;;;10.55;5.47;;;12.80;59.30;;;;;;5037930;28;20028;-79
2021/06/14 02:21:48;;;;;;;9.55;5.38;;;12.70;59.40;;;;;;5046645;28;20053;-79
2021/06/14 02:24:14;;;;;;;9.70;6.20;;;12.70;59.80;;;;;;5032714;28;20040;-79
2021/06/14 02:26:41;;;;;;;7.82;5.80;;;12.60;60.10;;;;;;5025401;28;20057;-79
2021/06/14 02:29:07;;;;;;;10.55;5.88;;;12.50;60.90;;;;;;5041378;28;20550;-80
2021/06/14 02:31:33;;;;;;;11.23;6.03;;;12.50;61.50;;;;;;5056935;28;20033;-79
2021/06/14 02:33:59;;;;;;;9.45;4.68;;;12.50;60.00;;;;;;5031518;28;20064;-79
2021/06/14 02:36:24;;;;;;;11.40;5.85;;;12.60;58.90;;;;;;5039870;28;20025;-79
2021/06/14 02:38:50;;;;;;;11.77;5.35;;;12.60;58.60;;;;;;5039353;28;20919;-79
2021/06/14 02:41:16;;;;;;;8.32;5.47;;;12.50;59.70;;;;;;5039553;28;20079;-80
2021/06/14 02:43:41;;;;;;;9.85;5.85;;;12.30;61.50;;;;;;5040218;28;20335;-80
2021/06/14 02:46:08;;;;;;;8.43;5.32;;;12.20;61.10;;;;;;5056402;28;20482;-80
2021/06/14 02:48:33;;;;;;;7.93;5.10;;;11.80;64.50;;;;;;5026571;28;20116;-79
2021/06/14 02:50:59;;;;;;;10.48;5.53;;;12.00;63.00;;;;;;5040574;28;20036;-79
2021/06/14 02:53:25;;;;;;;9.63;6.55;;;11.90;63.80;;;;;;5036965;28;20480;-79
2021/06/14 02:56:01;;;;;;;9.40;5.82;;;11.90;64.80;;;;;;5026535;28;20035;-79
2021/06/14 02:58:33;;;;;;;9.80;5.88;;;11.80;65.40;;;;;;5060542;28;20029;-79
2021/06/14 03:00:59;;;;;;;9.38;5.53;;;11.80;65.30;;;;;;5028069;28;20033;-79
2021/06/14 03:03:25;;;;;;;11.50;5.80;;;11.80;64.50;;;;;;5031584;28;20392;-79
2021/06/14 03:05:51;;;;;;;12.75;5.47;;;11.90;64.40;;;;;;5024927;28;20037;-80
2021/06/14 03:08:19;;;;;;;12.75;5.88;;;12.00;63.20;;;;;;5040247;28;20040;-79
2021/06/14 03:10:45;;;;;;;11.10;6.10;;;12.00;63.10;;;;;;5027268;28;20036;-80
2021/06/14 03:13:10;;;;;;;8.98;5.72;;;11.90;63.30;;;;;;5030443;28;20106;-80
2021/06/14 03:15:36;;;;;;;10.35;6.13;;;11.80;65.10;;;;;;5025177;28;20039;-79
2021/06/14 03:18:02;;;;;;;10.65;6.20;;;11.80;66.40;;;;;;5042961;28;20032;-79
2021/06/14 03:20:27;;;;;;;12.40;5.63;;;11.80;65.10;;;;;;5038766;28;20095;-79
2021/06/14 03:22:53;;;;;;;8.00;5.25;;;11.80;66.80;;;;;;5039908;28;20497;-79
2021/06/14 03:25:19;;;;;;;9.85;6.03;;;11.80;68.20;;;;;;5026425;28;20037;-80
2021/06/14 03:27:44;;;;;;;10.02;5.40;;;11.80;67.50;;;;;;5037229;28;20040;-79
2021/06/14 03:30:11;;;;;;;11.82;5.82;;;11.90;64.40;;;;;;5036878;28;20031;-79
2021/06/14 03:32:44;;;;;;;13.00;5.68;;;11.90;64.10;;;;;;5043113;28;20033;-79
2021/06/14 03:35:13;;;;;;;7.78;5.05;;;11.90;63.00;;;;;;5043211;28;20497;-79
2021/06/14 03:37:39;;;;;;;7.53;5.05;;;11.90;63.50;;;;;;5024974;28;20039;-79
2021/06/14 03:40:05;;;;;;;11.48;5.57;;;12.00;61.90;;;;;;5030664;28;20514;-79
2021/06/14 03:42:31;;;;;;;11.68;5.10;;;12.10;62.40;;;;;;5030030;28;20036;-79
2021/06/14 03:44:57;;;;;;;8.48;5.65;;;12.00;64.80;;;;;;5057075;28;20033;-79
2021/06/14 03:47:23;;;;;;;7.25;4.90;;;12.10;65.00;;;;;;5040716;28;20033;-79
2021/06/14 03:49:48;;;;;;;9.27;5.32;;;12.00;66.90;;;;;;5029353;28;20078;-79
2021/06/14 03:52:14;;;;;;;7.65;4.70;;;11.90;66.70;;;;;;5054847;28;20044;-79
2021/06/14 03:54:40;;;;;;;7.60;4.32;;;12.00;66.70;;;;;;5057339;28;20033;-79
2021/06/14 03:57:06;;;;;;;9.35;5.30;;;12.10;65.30;;;;;;5028558;28;20121;-79
2021/06/14 03:59:31;;;;;;;7.47;4.70;;;12.30;67.60;;;;;;5045269;28;20090;-79
2021/06/14 04:01:57;;;;;;;8.18;3.80;;;12.50;65.90;;;;;;5024854;28;20099;-79
2021/06/14 04:04:35;;;;;;;4.85;4.10;;;12.60;66.80;;;;;;5056255;28;20082;-79
2021/06/14 04:07:01;;;;;;;8.20;4.18;;;12.70;64.70;;;;;;5032022;28;20399;-79
2021/06/14 04:09:27;;;;;;;9.93;5.63;;;12.80;65.40;;;;;;5030795;28;20036;-79
2021/06/14 04:11:52;;;;;;;8.60;4.45;;;12.90;64.30;;;;;;5047484;28;20117;-80
2021/06/14 04:14:18;;;;;;;6.45;3.80;;;13.10;64.90;;;;;;5038082;28;20124;-79
2021/06/14 04:16:43;;;;;;;5.78;3.22;;;13.30;64.50;;;;;;5026854;28;20025;-79
2021/06/14 04:19:09;;;;;;;6.78;3.60;;;13.50;64.80;;;;;;5028745;28;20100;-79
2021/06/14 04:21:34;;;;;;;10.10;4.47;;;13.70;65.10;;;;;;5030533;28;20098;-80
2021/06/14 04:24:00;;;;;;;5.60;3.75;;;13.90;65.40;;;;;;5035012;28;20485;-79
2021/06/14 04:26:25;;;;;;;6.03;3.42;;;14.10;64.50;;;;;;5044287;28;20627;-79
2021/06/14 04:28:51;;;;;;;7.82;4.60;;;14.30;63.90;;;;;;5025016;28;20179;-79
2021/06/14 04:31:16;;;;;;;6.93;3.92;;;14.40;64.20;;;;;;5054697;28;20059;-80
2021/06/14 04:33:42;;;;;;;4.70;3.25;;;14.60;63.80;;;;;;5034891;28;20489;-79
2021/06/14 04:36:08;;;;;;;7.50;4.07;;;14.80;63.30;;;;;;5038779;28;20443;-79
2021/06/14 04:38:33;;;;;;;7.68;3.70;;;15.00;62.90;;;;;;5046659;28;20120;-79
2021/06/14 04:40:59;;;;;;;5.50;3.90;;;15.20;63.30;;;;;;5038039;28;20497;-80
2021/06/14 04:43:24;;;;;;;5.13;3.70;;;15.50;63.50;;;;;;5024799;28;20491;-79
2021/06/14 04:45:50;;;;;;;7.35;3.90;;;15.70;63.90;;;;;;5040020;28;20048;-80
2021/06/14 04:48:16;;;;;;;5.88;3.50;;;16.00;65.90;;;;;;5026990;28;20033;-79
2021/06/14 04:50:41;;;;;;;6.70;3.58;;;16.30;64.60;;;;;;5023702;28;20028;-79
2021/06/14 04:53:07;;;;;;;10.30;3.78;;;16.50;65.20;;;;;;5024213;28;20032;-79
2021/06/14 04:55:32;;;;;;;5.78;3.55;;;16.80;65.60;;;;;;5026355;28;20029;-79
2021/06/14 04:57:59;;;;;;;9.98;3.72;;;17.10;65.70;;;;;;5026513;28;20025;-79
2021/06/14 05:00:24;;;;;;;5.35;3.72;;;17.40;66.10;;;;;;5040392;28;20192;-80
2021/06/14 05:02:50;;;;;;;6.72;3.15;;;17.70;66.40;;;;;;5039548;28;20032;-79
2021/06/14 05:05:15;;;;;;;8.75;3.50;;;18.00;66.30;;;;;;5019208;28;20041;-80
2021/06/14 05:07:41;;;;;;;7.72;3.72;;;18.40;66.10;;;;;;5039108;28;20148;-80
2021/06/14 05:10:07;;;;;;;7.95;3.72;;;18.60;65.90;;;;;;5028063;28;20036;-79
2021/06/14 05:12:33;;;;;;;6.15;3.53;;;19.00;65.40;;;;;;5051883;28;20074;-79
2021/06/14 05:14:58;;;;;;;8.75;3.30;;;19.30;65.10;;;;;;5023782;28;20047;-79
2021/06/14 05:17:24;;;;;;;10.27;3.72;;;19.50;64.60;;;;;;5058876;28;20115;-80
2021/06/14 05:19:49;;;;;;;8.73;3.40;;;19.80;64.00;;;;;;5046777;28;20124;-80
2021/06/14 05:22:15;;;;;;;6.20;3.13;;;20.10;63.60;;;;;;5038699;28;20100;-79
2021/06/14 05:24:41;;;;;;;6.95;3.28;;;20.40;62.80;;;;;;5023482;28;20072;-79
2021/06/14 05:27:07;;;;;;;8.02;3.10;;;20.70;62.40;;;;;;5026173;28;20037;-79
2021/06/14 05:29:32;;;;;;;4.78;2.92;;;21.00;61.00;;;;;;5036576;28;20029;-79
2021/06/14 05:31:58;;;;;;;6.78;3.20;;;21.20;60.90;;;;;;5054437;28;20045;-80
2021/06/14 05:34:24;;;;;;;5.03;3.00;;;21.50;60.40;;;;;;5024603;28;20036;-80
2021/06/14 05:36:49;;;;;;;4.55;2.85;;;21.70;60.10;;;;;;5040188;28;20033;-80
2021/06/14 05:39:15;;;;;;;7.25;3.47;;;21.90;59.40;;;;;;5041754;28;20387;-81
2021/06/14 05:41:40;;;;;;;6.13;3.30;;;22.00;58.50;;;;;;5037089;28;20024;-81
2021/06/14 05:44:06;;;;;;;4.63;2.65;;;22.30;58.60;;;;;;5023091;28;20040;-81
2021/06/14 05:46:32;;;;;;;8.40;2.75;;;22.30;53.20;;;;;;5031238;28;20037;-81
2021/06/14 05:48:57;;;;;;;6.00;2.60;;;21.90;51.90;;;;;;5029893;28;20037;-81
2021/06/14 05:51:23;;;;;;;6.50;3.20;;;22.40;57.10;;;;;;5032403;28;20032;-81
2021/06/14 05:53:48;;;;;;;6.07;2.85;;;22.60;55.30;;;;;;5006560;28;20041;-81
2021/06/14 05:56:15;;;;;;;5.78;2.63;;;22.80;53.30;;;;;;5018622;28;20416;-82
2021/06/14 05:58:40;;;;;;;6.88;2.75;;;23.30;53.70;;;;;;5018997;28;20145;-82
2021/06/14 06:01:06;;;;;;;4.50;2.63;;;23.30;51.10;;;;;;5020274;28;20032;-81
2021/06/14 06:03:31;;;;;;;5.07;2.58;;;23.60;56.00;;;;;;5038311;28;20036;-82
2021/06/14 06:05:57;;;;;;;4.60;2.40;;;24.30;54.70;;;;;;5024170;28;20119;-83
2021/06/14 06:08:22;;;;;;;6.85;2.58;;;23.80;49.80;;;;;;5031251;28;20293;-83
2021/06/14 06:10:48;;;;;;;7.07;2.75;;;23.80;55.90;;;;;;5041407;28;20120;-83
2021/06/14 06:13:13;;;;;;;8.13;2.90;;;24.40;54.10;;;;;;5057665;28;20476;-84
2021/06/14 06:15:39;;;;;;;7.05;3.03;;;25.00;54.50;;;;;;5042030;28;20443;-84
2021/06/14 06:18:04;;;;;;;7.10;2.78;;;25.00;52.30;;;;;;5039838;28;20107;-85
2021/06/14 06:20:30;;;;;;;4.15;2.22;;;24.00;47.80;;;;;;5032623;28;20111;-85
2021/06/14 06:22:55;;;;;;;6.13;2.25;;;23.50;48.50;;;;;;5024278;28;20033;-85
2021/06/14 06:25:22;;;;;;;5.88;2.50;;;24.50;49.20;;;;;;5027022;28;20025;-86
2021/06/14 06:27:48;;;;;;;6.55;2.58;;;24.80;49.90;;;;;;5026720;28;20020;-86
2021/06/14 06:30:14;;;;;;;5.43;2.70;;;25.00;51.80;;;;;;5038946;28;20491;-86
2021/06/14 06:32:40;;;;;;;5.07;2.00;;;24.90;50.80;;;;;;5036865;28;20755;-87
2021/06/14 06:35:06;;;;;;;6.85;2.53;;;25.20;51.30;;;;;;5028162;28;20032;-85
2021/06/14 06:37:32;;;;;;;3.40;2.28;;;25.60;50.70;;;;;;5028496;28;20087;-85
2021/06/14 06:39:57;;;;;;;5.68;2.03;;;25.40;49.10;;;;;;5028739;28;20044;-85
2021/06/14 06:42:24;;;;;;;5.63;2.30;;;25.70;48.30;;;;;;5044146;28;20051;-86
2021/06/14 06:44:50;;;;;;;4.72;3.05;;;26.30;50.50;;;;;;5044375;28;20028;-86
2021/06/14 06:47:18;;;;;;;5.30;2.33;;;26.70;48.30;;;;;;5044559;28;20032;-87
2021/06/14 06:49:44;;;;;;;7.95;2.47;;;25.30;46.30;;;;;;5031037;28;20033;-88
2021/06/14 06:52:10;;;;;;;5.65;2.28;;;26.60;49.00;;;;;;5036807;28;20409;-87
2021/06/14 06:54:36;;;;;;;4.78;2.17;;;26.70;46.50;;;;;;5024528;28;20493;-87
2021/06/14 06:57:02;;;;;;;5.95;2.70;;;26.60;44.60;;;;;;5028693;28;20036;-87
2021/06/14 06:59:27;;;;;;;10.98;2.10;;;26.20;47.50;;;;;;5027076;28;20088;-87
2021/06/14 07:01:53;;;;;;;5.78;2.50;;;26.30;45.70;;;;;;5032313;28;20041;-88
2021/06/14 07:04:18;;;;;;;5.70;2.40;;;26.40;46.60;;;;;;5018524;28;21581;-88
2021/06/14 07:06:44;;;;;;;5.32;2.72;;;26.80;46.50;;;;;;5030987;28;20036;-88
2021/06/14 07:09:11;;;;;;;3.97;2.08;;;26.80;43.60;;;;;;5023971;28;20037;-88
2021/06/14 07:11:37;;;;;;;3.80;2.22;;;27.00;43.00;;;;;;5045032;28;20092;-88
2021/06/14 07:14:02;;;;;;;5.50;2.10;;;26.90;46.40;;;;;;5032894;28;20386;-87
2021/06/14 07:16:28;;;;;;;3.97;2.53;;;26.20;43.00;;;;;;5027963;28;20108;-88
2021/06/14 07:18:54;;;;;;;6.85;1.92;;;26.10;44.00;;;;;;5044810;28;20040;-87
2021/06/14 07:21:20;;;;;;;6.75;2.53;;;26.80;45.00;;;;;;5042598;28;20043;-86
2021/06/14 07:23:46;;;;;;;4.10;2.28;;;27.70;43.70;;;;;;5042341;28;20021;-85
2021/06/14 07:26:12;;;;;;;4.65;2.42;;;27.20;41.70;;;;;;5031094;28;20040;-85
2021/06/14 07:28:37;;;;;;;4.50;2.75;;;27.20;41.80;;;;;;5047411;28;20472;-85
2021/06/14 07:31:04;;;;;;;7.35;2.83;;;26.90;42.90;;;;;;5032274;28;20037;-84
2021/06/14 07:33:30;;;;;;;7.32;2.60;;;27.50;41.40;;;;;;5025520;28;20134;-84
2021/06/14 07:35:56;;;;;;;8.77;2.50;;;27.00;40.80;;;;;;5045409;28;20524;-84
2021/06/14 07:38:22;;;;;;;3.55;2.15;;;26.90;41.60;;;;;;5022225;28;20485;-83
2021/06/14 07:40:47;;;;;;;6.25;2.55;;;27.40;42.10;;;;;;5057304;28;20037;-84
2021/06/14 07:43:14;;;;;;;4.38;2.25;;;27.50;41.80;;;;;;5040776;28;20370;-84
2021/06/14 07:45:40;;;;;;;4.32;2.58;;;27.50;41.10;;;;;;5057587;28;20035;-83
2021/06/14 07:48:07;;;;;;;3.38;2.22;;;27.60;43.30;;;;;;5046963;28;20040;-83
2021/06/14 07:50:33;;;;;;;5.15;2.30;;;28.20;42.10;;;;;;5057377;28;20037;-84
2021/06/14 07:52:59;;;;;;;6.00;2.58;;;28.00;40.10;;;;;;5044939;28;20086;-85
2021/06/14 07:55:24;;;;;;;2.78;1.98;;;28.10;41.30;;;;;;5045107;28;20029;-86
2021/06/14 07:57:50;;;;;;;5.20;2.20;;;28.70;39.80;;;;;;5044008;28;20116;-83
2021/06/14 08:00:16;;;;;;;7.20;2.33;;;28.50;39.70;;;;;;5024576;28;20068;-85
2021/06/14 08:02:41;;;;;;;6.03;2.78;;;28.90;41.30;;;;;;5027128;28;20075;-83
2021/06/14 08:05:11;;;;;;;5.45;2.45;;;29.30;42.50;;;;;;5030384;28;20029;-82
2021/06/14 08:07:36;;;;;;;3.58;2.17;;;29.50;39.90;;;;;;5044407;28;20027;-82
2021/06/14 08:10:05;;;;;;;3.22;2.00;;;29.20;39.30;;;;;;5039585;28;20033;-81
2021/06/14 08:12:32;;;;;;;5.60;2.70;;;29.30;40.30;;;;;;5055583;28;20481;-83
2021/06/14 08:14:57;;;;;;;7.25;2.33;;;29.30;39.00;;;;;;5039762;28;20045;-84
2021/06/14 08:17:23;;;;;;;4.57;2.10;;;29.50;39.10;;;;;;5036514;28;20114;-83
2021/06/14 08:19:56;;;;;;;4.93;2.40;;;30.00;39.60;;;;;;5036944;28;20033;-82
2021/06/14 08:27:48;;;;;;;3.30;2.40;;;29.90;38.10;;;;;;5051578;28;20111;-81
2021/06/14 08:30:16;;;;;;;8.50;2.20;;;29.70;38.00;;;;;;5040771;28;20449;-78
2021/06/14 08:32:41;;;;;;;3.05;2.28;;;29.50;38.80;;;;;;5040306;28;20037;-80
2021/06/14 08:35:13;;;;;;;3.08;2.08;;;29.00;39.10;;;;;;5054749;28;20047;-79
2021/06/14 08:37:39;;;;;;;5.30;2.15;;;29.90;40.00;;;;;;5028816;28;20029;-79
2021/06/14 08:40:05;;;;;;;8.63;2.63;;;30.10;38.30;;;;;;5036971;28;20031;-77
2021/06/14 08:42:31;;;;;;;7.75;2.15;;;30.60;37.70;;;;;;5022730;28;20044;-80
2021/06/14 08:44:56;;;;;;;7.22;2.00;;;31.10;38.30;;;;;;5023006;28;20044;-77
2021/06/14 08:47:22;;;;;;;4.95;2.13;;;31.10;38.20;;;;;;5054247;28;20025;-77
2021/06/14 08:49:47;;;;;;;3.03;2.22;;;31.50;39.00;;;;;;5042631;28;20032;-77
2021/06/14 08:52:13;;;;;;;5.90;2.65;;;31.70;37.90;;;;;;5043529;28;20033;-76
2021/06/14 08:54:42;;;;;;;3.50;2.35;;;31.80;36.90;;;;;;5059048;28;20143;-76
2021/06/14 08:57:08;;;;;;;6.90;2.50;;;31.80;37.60;;;;;;5041155;28;20101;-78
2021/06/14 08:59:34;;;;;;;5.30;2.67;;;31.90;36.70;;;;;;5058089;28;20468;-77
2021/06/14 09:02:00;;;;;;;6.13;2.67;;;31.70;37.20;;;;;;5044550;28;20037;-76
2021/06/14 09:04:26;;;;;;;4.47;2.50;;;31.70;36.40;;;;;;5059440;28;20093;-77
2021/06/14 09:06:52;;;;;;;5.95;2.90;;;31.90;35.50;;;;;;5027286;28;20063;-77
2021/06/14 09:09:17;;;;;;;2.65;1.70;;;32.50;36.10;;;;;;5026300;28;20056;-76
2021/06/14 09:11:50;;;;;;;2.58;2.38;;;32.30;34.30;;;;;;5041031;28;20052;-77
2021/06/14 09:14:17;;;;;;;7.15;2.42;;;32.10;35.00;;;;;;5040768;28;20039;-76
2021/06/14 09:16:43;;;;;;;6.13;3.00;;;32.20;34.00;;;;;;5063591;28;20043;-77
2021/06/14 09:19:41;;;;;;;4.88;2.60;;;32.70;35.10;;;;;;5044233;28;20392;-77
2021/06/14 09:22:16;;;;;;;4.70;3.03;;;32.30;35.20;;;;;;5043983;28;20128;-77
2021/06/14 09:24:58;;;;;;;;;;;32.90;35.30;;;;;;5056958;28;20128;-77
2021/06/14 09:27:32;;;;;;;5.25;2.47;;;32.90;35.90;;;;;;5056404;28;19913;-77
2021/06/14 09:30:09;;;;;;;5.60;2.90;;;33.00;33.80;;;;;;5047631;28;20041;-77
2021/06/14 09:32:36;;;;;;;3.55;2.22;;;33.30;35.00;;;;;;5061712;28;20087;-77
2021/06/14 09:35:01;;;;;;;5.50;2.25;;;33.70;34.20;;;;;;5055448;28;20163;-77
2021/06/14 09:37:27;;;;;;;4.82;2.65;;;33.70;34.00;;;;;;5040046;28;20567;-76
2021/06/14 09:39:52;;;;;;;6.10;2.65;;;33.90;33.60;;;;;;5024670;28;20025;-76
2021/06/14 09:42:21;;;;;;;4.97;2.25;;;33.50;33.00;;;;;;5061262;28;20040;-76
2021/06/14 09:44:51;;;;;;;4.60;2.50;;;33.20;33.20;;;;;;5060053;28;20039;-76
2021/06/14 09:47:17;;;;;;;7.10;2.25;;;33.50;33.30;;;;;;5043138;28;20407;-77
2021/06/14 09:49:54;;;;;;;5.03;2.67;;;33.90;32.50;;;;;;5055834;28;20040;-76
2021/06/14 09:52:20;;;;;;;5.22;2.63;;;34.20;31.10;;;;;;5041052;28;20060;-76
2021/06/14 09:54:46;;;;;;;5.55;2.20;;;34.10;31.90;;;;;;5057831;28;20067;-77
2021/06/14 09:57:12;;;;;;;4.45;2.67;;;34.10;31.40;;;;;;5044122;28;20056;-76
2021/06/14 09:59:40;;;;;;;3.65;2.35;;;34.40;31.20;;;;;;5056240;28;20033;-76
2021/06/14 10:02:10;;;;;;;2.83;2.28;;;34.80;33.10;;;;;;5041563;28;20090;-76
2021/06/14 10:04:36;;;;;;;6.20;2.33;;;34.70;30.90;;;;;;5056207;28;20034;-76
2021/06/14 10:07:12;;;;;;;9.15;2.00;;;34.30;31.10;;;;;;5045073;28;20041;-77
2021/06/14 10:09:51;;;;;;;3.25;2.10;;;34.70;30.30;;;;;;5042318;28;20043;-77
2021/06/14 10:12:21;;;;;;;2.53;2.10;;;34.40;32.00;;;;;;5042590;28;20033;-77
2021/06/14 10:14:54;;;;;;;5.78;2.40;;;34.40;32.30;;;;;;5057448;28;20627;-77
2021/06/14 10:17:36;;;;;;;4.10;2.10;;;34.70;31.50;;;;;;5041867;28;20040;-76
2021/06/14 10:20:13;;;;;;;9.40;3.00;;;34.40;30.20;;;;;;5056596;28;20036;-76
2021/06/14 10:22:38;;;;;;;2.63;2.28;;;34.70;31.70;;;;;;5040900;28;20037;-76
2021/06/14 10:25:06;;;;;;;2.78;2.00;;;35.00;31.10;;;;;;5058621;28;20507;-76
2021/06/14 10:27:32;;;;;;;4.28;2.40;;;35.50;30.00;;;;;;5059176;28;20115;-77
2021/06/14 10:29:58;;;;;;;3.40;2.13;;;35.30;30.70;;;;;;5037818;28;20063;-77
2021/06/14 10:32:23;;;;;;;4.32;2.50;;;35.50;30.30;;;;;;5058366;28;20481;-76
2021/06/14 10:34:50;;;;;;;7.18;2.92;;;35.50;31.30;;;;;;5057050;28;20476;-77
2021/06/14 10:37:15;;;;;;;4.32;2.47;;;35.70;30.80;;;;;;5046004;28;20032;-77
2021/06/14 10:39:42;;;;;;;7.00;3.20;;;35.80;31.20;;;;;;5061505;28;20056;-77
2021/06/14 10:42:08;;;;;;;4.38;2.25;;;36.30;30.90;;;;;;5042136;28;20029;-78
2021/06/14 10:44:33;;;;;;;3.88;2.30;;;36.20;30.60;;;;;;5048346;28;20407;-78
2021/06/14 10:46:59;;;;;;;4.43;2.45;;;36.50;30.70;;;;;;5060486;28;20036;-78
2021/06/14 10:49:24;;;;;;;2.22;1.70;;;36.50;29.90;;;;;;5063122;28;20503;-78
2021/06/14 10:51:57;;;;;;;6.68;2.53;;;36.30;29.30;;;;;;5064769;28;20041;-78
2021/06/14 10:54:22;;;;;;;6.68;2.75;;;36.30;29.80;;;;;;5027877;28;20086;-78
2021/06/14 10:56:48;;;;;;;5.28;2.78;;;36.20;30.60;;;;;;5044291;28;20029;-77
2021/06/14 10:59:14;;;;;;;7.82;2.50;;;36.60;30.00;;;;;;5038511;28;20029;-77
2021/06/14 11:01:45;;;;;;;4.43;2.42;;;37.00;29.40;;;;;;5065746;28;20037;-77
2021/06/14 11:04:27;;;;;;;4.25;2.40;;;37.00;29.80;;;;;;5032665;28;20029;-77
2021/06/14 11:06:54;;;;;;;4.20;2.60;;;37.10;30.10;;;;;;5046744;28;20036;-77
2021/06/14 11:09:20;;;;;;;3.58;2.33;;;37.20;30.20;;;;;;5062107;28;20043;-77
2021/06/14 11:11:57;;;;;;;2.90;2.17;;;37.50;28.50;;;;;;5030355;28;20119;-77
2021/06/14 11:14:28;;;;;;;3.40;2.22;;;37.50;28.30;;;;;;5062519;28;20041;-77
2021/06/14 11:16:54;;;;;;;2.60;2.38;;;37.50;28.60;;;;;;5063504;28;20153;-76
2021/06/14 11:19:19;;;;;;;5.07;2.63;;;38.00;28.10;;;;;;5045280;28;20123;-77
2021/06/14 11:21:52;;;;;;;5.15;2.80;;;37.90;28.60;;;;;;5060079;28;20500;-77
2021/06/14 11:24:18;;;;;;;6.45;2.20;;;37.70;29.70;;;;;;5028002;28;20526;-76
2021/06/14 11:26:43;;;;;;;3.25;2.40;;;37.50;28.60;;;;;;5047065;28;20037;-77
2021/06/14 11:29:17;;;;;;;3.65;2.33;;;37.90;28.60;;;;;;5047430;28;20028;-77
2021/06/14 11:32:00;;;;;;;3.83;1.90;;;38.10;28.50;;;;;;5045893;28;20052;-77
2021/06/14 11:34:26;;;;;;;5.50;2.60;;;38.30;27.90;;;;;;5047979;28;20128;-77
2021/06/14 11:36:57;;;;;;;5.22;2.58;;;38.00;27.30;;;;;;5057620;28;20123;-77
2021/06/14 11:39:22;;;;;;;3.72;2.40;;;38.20;28.60;;;;;;5062943;28;20028;-77
2021/06/14 11:41:48;;;;;;;4.97;2.70;;;38.10;28.80;;;;;;5043510;28;20029;-77
2021/06/14 11:44:20;;;;;;;4.18;2.30;;;38.30;28.90;;;;;;5067035;28;20029;-77
2021/06/14 11:46:47;;;;;;;4.38;2.50;;;38.30;27.60;;;;;;5030254;28;20125;-76
2021/06/14 11:49:13;;;;;;;4.53;2.13;;;38.30;26.70;;;;;;5038940;28;20032;-77
2021/06/14 11:51:38;;;;;;;5.60;2.05;;;38.50;27.40;;;;;;5040646;28;20445;-77
2021/06/14 11:54:04;;;;;;;3.33;1.88;;;38.50;26.60;;;;;;5059605;28;20127;-77
2021/06/14 11:56:33;;;;;;;3.90;2.67;;;38.60;26.80;;;;;;5028711;28;20110;-77
2021/06/14 11:58:59;;;;;;;3.90;2.35;;;38.70;27.10;;;;;;5044824;28;20033;-77
2021/06/14 12:01:25;;;;;;;4.60;1.70;;;38.80;25.60;;;;;;5061772;28;20363;-77
2021/06/14 12:04:09;;;;;;;4.95;2.63;;;38.30;26.30;;;;;;5039850;28;20025;-77
2021/06/14 12:06:45;;;;;;;2.17;1.83;;;38.70;27.20;;;;;;5061708;28;20471;-77
2021/06/14 12:09:11;;;;;;;3.55;2.10;;;38.70;27.50;;;;;;5064227;28;20222;-77
2021/06/14 12:11:37;;;;;;;2.40;2.20;;;38.30;26.40;;;;;;5027612;28;20080;-77
2021/06/14 12:14:15;;;;;;;2.92;1.80;;;38.80;27.60;;;;;;5060676;28;20039;-77
2021/06/14 12:16:41;;;;;;;5.70;2.58;;;39.10;25.80;;;;;;5059731;28;20044;-77
2021/06/14 12:19:07;;;;;;;4.72;2.42;;;39.10;26.60;;;;;;5060264;28;20114;-77
2021/06/14 12:21:32;;;;;;;3.92;2.45;;;39.20;27.10;;;;;;5026943;28;20509;-77
2021/06/14 12:23:58;;;;;;;3.00;2.30;;;39.40;26.90;;;;;;5046404;28;20032;-76
2021/06/14 12:26:23;;;;;;;4.72;2.10;;;39.30;27.00;;;;;;5060625;28;20024;-77
2021/06/14 12:28:49;;;;;;;3.88;2.10;;;39.70;27.20;;;;;;5061497;28;20036;-77
2021/06/14 12:31:15;;;;;;;4.72;2.53;;;39.70;27.00;;;;;;5060504;28;20020;-77
2021/06/14 12:33:42;;;;;;;3.60;2.47;;;39.80;27.10;;;;;;5040982;28;20040;-77
2021/06/14 12:36:09;;;;;;;3.75;2.25;;;39.80;26.50;;;;;;5043759;28;20035;-77
2021/06/14 12:38:50;;;;;;;5.75;2.92;;;39.90;26.60;;;;;;5042822;28;20119;-77
2021/06/14 12:41:17;;;;;;;2.17;1.50;;;40.30;26.50;;;;;;5044402;28;20130;-77
2021/06/14 12:43:43;;;;;;;3.20;2.10;;;40.50;25.80;;;;;;5060106;28;20560;-77
2021/06/14 12:46:08;;;;;;;4.00;1.90;;;40.10;26.60;;;;;;5059213;28;20078;-77
2021/06/14 12:48:34;;;;;;;4.32;2.65;;;40.00;26.70;;;;;;5046215;28;20028;-76
2021/06/14 12:50:59;;;;;;;4.95;2.17;;;40.00;25.80;;;;;;5043765;28;20073;-77